Weather at Montreal / Pierre Elliott Trudeau International Airport

Public forecast

Using degrees Celsius for public forecast. Weather courtesy of forecast.io.

Current aviation weather report (METAR) for Montreal / Pierre Elliott Trudeau International Airport

Retrieved 2020/11/28 19:00 UTC (14 minutes ago):

CYUL 281900Z 22008KT 10SM SCT011 BKN082 06/03 A2988 RMK SC4AC3 SLP120

Aviation forecast (TAF) for Montreal / Pierre Elliott Trudeau International Airport

Retrieved 2020/11/28 18:42 UTC (32 minutes ago):

TAF CYUL 281738Z 2818/2918 24005KT P6SM SCT008 BKN100 TEMPO 2818/2819 4SM -SHRA BR FEW004 BKN008 OVC070 FM281900 25012G22KT P6SM SCT020 BKN080 TEMPO 2819/2821 P6SM -SHRA BKN020 BKN080 FM290000 26010KT P6SM BKN040 BKN080 BECMG 2908/2910 24007KT FM291600 24012KT P6SM BKN030 RMK NXT FCST BY 282100Z